Time;durP1;ratioP1;P1;durP2;ratioP2;P2;SDS_P1;SDS_P2;PMS_P1;PMS_P2;Temp;Humidity;BMP_temperature;BMP_pressure;BME280_temperature;BME280_humidity;BME280_pressure;Samples;Min_cycle;Max_cycle;Signal;HPM_P1;HPM_P2
2023/10/27 00:01:27;;;;;;;1.10;0.90;;;;;;;13.85;100.00;95724.03;1226223;75;2913450;-75
2023/10/27 00:04:00;;;;;;;1.30;0.90;;;;;;;13.90;100.00;95725.13;1225520;75;2915210;-72
2023/10/27 00:06:33;;;;;;;1.25;1.00;;;;;;;13.93;100.00;95721.31;1226112;75;2939566;-76
2023/10/27 00:09:07;;;;;;;1.15;0.95;;;;;;;13.85;100.00;95726.78;1225912;75;2923556;-72
2023/10/27 00:11:39;;;;;;;2.10;0.80;;;;;;;13.86;100.00;95727.50;1224999;75;2918119;-71
2023/10/27 00:14:15;;;;;;;1.60;0.90;;;;;;;13.98;100.00;95714.91;1225285;75;2919032;-74
2023/10/27 00:16:47;;;;;;;1.35;0.80;;;;;;;13.98;100.00;95703.88;1224832;75;2920910;-78
2023/10/27 00:19:20;;;;;;;0.85;0.70;;;;;;;14.04;100.00;95709.94;1225098;75;2923209;-73
2023/10/27 00:21:52;;;;;;;0.70;0.60;;;;;;;14.02;100.00;95715.28;1226091;75;2913169;-75
2023/10/27 00:24:25;;;;;;;2.45;0.90;;;;;;;14.00;100.00;95697.84;1223263;75;2913537;-73
2023/10/27 00:26:58;;;;;;;2.35;0.80;;;;;;;13.99;100.00;95693.63;1224679;75;2918760;-75
2023/10/27 00:29:33;;;;;;;2.95;1.40;;;;;;;13.64;100.00;95690.41;1224545;75;2918619;-71
2023/10/27 00:32:06;;;;;;;2.95;1.75;;;;;;;13.56;100.00;95686.88;1224007;75;2926021;-75
2023/10/27 00:34:39;;;;;;;2.45;1.55;;;;;;;13.89;100.00;95685.16;1225272;75;2919487;-77
2023/10/27 00:37:11;;;;;;;1.80;1.40;;;;;;;13.96;100.00;95676.19;1224896;75;2921826;-74
2023/10/27 00:39:44;;;;;;;1.30;1.00;;;;;;;14.16;100.00;95674.56;1226076;75;2923692;-76
2023/10/27 00:42:16;;;;;;;1.80;1.05;;;;;;;14.16;100.00;95682.09;1225144;75;2918674;-76
2023/10/27 00:44:52;;;;;;;1.00;0.90;;;;;;;14.25;100.00;95673.31;1223473;75;2920142;-73
2023/10/27 00:47:27;;;;;;;0.80;0.70;;;;;;;14.27;100.00;95673.50;1225472;75;2924109;-72
2023/10/27 00:50:00;;;;;;;0.90;0.75;;;;;;;14.31;100.00;95665.63;1224140;75;2936058;-73
2023/10/27 00:52:34;;;;;;;0.90;0.90;;;;;;;14.24;100.00;95664.31;1225565;75;2921467;-72
2023/10/27 00:55:10;;;;;;;1.25;0.80;;;;;;;14.17;100.00;95662.28;1225279;75;2914161;-74
2023/10/27 00:57:44;;;;;;;0.80;0.60;;;;;;;14.23;100.00;95654.56;1225484;75;2924361;-77
2023/10/27 01:00:20;;;;;;;0.65;0.60;;;;;;;14.25;100.00;95643.03;1225376;75;2913936;-74
2023/10/27 01:02:53;;;;;;;1.90;0.70;;;;;;;14.27;100.00;95638.44;1225774;75;2920356;-74
2023/10/27 01:05:26;;;;;;;1.20;0.75;;;;;;;14.28;100.00;95641.91;1225836;75;2916837;-74
2023/10/27 01:07:58;;;;;;;2.15;1.00;;;;;;;14.24;100.00;95633.31;1225472;75;2922440;-73
2023/10/27 01:10:31;;;;;;;1.10;0.90;;;;;;;14.27;100.00;95626.69;1225207;75;2919165;-68
2023/10/27 01:13:04;;;;;;;1.15;0.70;;;;;;;14.26;100.00;95620.47;1225515;75;2921163;-79
2023/10/27 01:15:39;;;;;;;0.95;0.85;;;;;;;14.27;100.00;95615.69;1225117;75;2928449;-76
2023/10/27 01:18:12;;;;;;;1.20;0.80;;;;;;;14.24;100.00;95595.50;1226017;75;2918533;-75
2023/10/27 01:20:44;;;;;;;1.35;0.95;;;;;;;14.16;100.00;95597.50;1225936;75;2923697;-75
2023/10/27 01:23:20;;;;;;;1.55;1.00;;;;;;;14.03;100.00;95578.44;1226235;75;2913541;-76
2023/10/27 01:25:52;;;;;;;1.60;1.00;;;;;;;14.04;100.00;95580.63;1225189;75;2915316;-76
2023/10/27 01:28:25;;;;;;;1.45;1.00;;;;;;;14.09;100.00;95573.47;1225623;75;2921295;-72
2023/10/27 01:30:57;;;;;;;1.25;0.90;;;;;;;14.15;100.00;95576.81;1225726;75;2914678;-73
2023/10/27 01:33:30;;;;;;;1.00;0.90;;;;;;;14.14;100.00;95571.84;1224588;75;2926582;-75
2023/10/27 01:36:03;;;;;;;1.65;1.05;;;;;;;14.18;100.00;95569.47;1225268;75;2921184;-74
2023/10/27 01:38:38;;;;;;;1.60;0.80;;;;;;;14.22;100.00;95564.34;1225501;75;2932994;-74
2023/10/27 01:41:10;;;;;;;0.80;0.70;;;;;;;14.28;100.00;95567.63;1224687;75;2920885;-76
2023/10/27 01:43:43;;;;;;;0.95;0.75;;;;;;;14.24;100.00;95545.25;1225894;75;2923644;-73
2023/10/27 01:46:16;;;;;;;1.00;0.80;;;;;;;14.30;100.00;95550.56;1225775;75;2912067;-72
2023/10/27 01:48:48;;;;;;;1.10;0.70;;;;;;;14.28;100.00;95531.84;1225607;75;2912668;-76
2023/10/27 01:51:21;;;;;;;1.15;0.90;;;;;;;14.22;100.00;95523.06;1224804;75;2919999;-74
2023/10/27 01:53:56;;;;;;;0.80;0.80;;;;;;;14.06;100.00;95514.06;1225251;75;2920337;-73
2023/10/27 01:56:30;;;;;;;1.50;0.90;;;;;;;14.11;100.00;95504.16;1224413;75;2920038;-74
2023/10/27 01:59:03;;;;;;;1.10;1.00;;;;;;;14.18;100.00;95490.38;1226116;75;2924695;-74
2023/10/27 02:01:35;;;;;;;1.05;0.80;;;;;;;14.16;100.00;95487.44;1225037;75;2919536;-71
2023/10/27 02:04:08;;;;;;;1.00;0.90;;;;;;;14.10;100.00;95481.41;1223707;75;2921034;-75
2023/10/27 02:06:41;;;;;;;1.30;0.75;;;;;;;14.15;100.00;95479.75;1224296;75;2916990;-75
2023/10/27 02:09:17;;;;;;;1.15;0.90;;;;;;;14.12;100.00;95475.34;1225643;75;2920018;-74
2023/10/27 02:11:49;;;;;;;0.75;0.75;;;;;;;14.14;100.00;95481.78;1225311;75;2915796;-72
2023/10/27 02:14:22;;;;;;;1.75;1.00;;;;;;;14.04;100.00;95475.38;1225280;75;2921445;-76
2023/10/27 02:16:55;;;;;;;1.35;1.00;;;;;;;14.07;100.00;95460.53;1225497;75;2914102;-73
2023/10/27 02:19:27;;;;;;;1.60;1.00;;;;;;;14.11;100.00;95458.13;1225201;75;2925759;-76
2023/10/27 02:22:00;;;;;;;1.50;1.05;;;;;;;14.17;100.00;95447.66;1225086;75;2923868;-73
2023/10/27 02:24:35;;;;;;;1.10;0.90;;;;;;;14.18;100.00;95445.63;1225458;75;2916440;-72
2023/10/27 02:27:08;;;;;;;1.20;1.00;;;;;;;14.12;100.00;95434.84;1224199;75;2929188;-74
2023/10/27 02:29:41;;;;;;;1.65;0.70;;;;;;;14.08;100.00;95428.97;1224016;75;2924579;-68
2023/10/27 02:32:15;;;;;;;1.60;0.70;;;;;;;14.12;100.00;95418.31;1226047;75;2919291;-76
2023/10/27 02:34:49;;;;;;;1.48;0.77;;;;;;;14.12;100.00;95404.56;1199178;75;5493143;-68
2023/10/27 02:37:22;;;;;;;1.05;0.80;;;;;;;14.12;100.00;95398.31;1224732;75;2919698;-72
2023/10/27 02:39:57;;;;;;;1.25;1.00;;;;;;;14.14;100.00;95407.50;1224824;75;2921729;-75
2023/10/27 02:42:30;;;;;;;1.30;0.95;;;;;;;14.16;100.00;95398.69;1224629;75;2919972;-74
2023/10/27 02:45:02;;;;;;;1.15;1.05;;;;;;;14.19;100.00;95381.03;1225119;75;2922956;-76
2023/10/27 02:47:35;;;;;;;1.05;0.75;;;;;;;14.26;100.00;95375.53;1225124;75;2924778;-74
2023/10/27 02:50:08;;;;;;;1.70;1.10;;;;;;;14.06;100.00;95371.72;1225092;75;2931627;-76
2023/10/27 02:52:41;;;;;;;1.35;1.00;;;;;;;14.07;100.00;95372.50;1224839;75;2919371;-75
2023/10/27 02:55:16;;;;;;;1.20;1.10;;;;;;;14.05;100.00;95372.31;1225604;75;2922167;-75
2023/10/27 02:57:49;;;;;;;1.20;0.80;;;;;;;14.19;100.00;95364.53;1224970;75;2949034;-71
2023/10/27 03:00:22;;;;;;;1.00;0.90;;;;;;;14.21;100.00;95356.47;1224530;75;2919195;-74
2023/10/27 03:02:55;;;;;;;1.20;1.10;;;;;;;14.19;100.00;95339.78;1225217;75;2930533;-75
2023/10/27 03:05:25;;;;;;;3.15;1.00;;;;;;;14.09;100.00;95336.88;1225032;75;2920309;-71
2023/10/27 03:07:57;;;;;;;1.10;1.00;;;;;;;14.07;100.00;95336.72;1224338;75;2960384;-72
2023/10/27 03:10:33;;;;;;;2.10;1.30;;;;;;;14.05;100.00;95322.78;1225211;75;2918569;-73
2023/10/27 03:13:08;;;;;;;1.35;1.25;;;;;;;13.89;100.00;95330.34;1226135;75;2921123;-73
2023/10/27 03:15:40;;;;;;;2.65;1.40;;;;;;;13.86;100.00;95328.72;1225337;75;2914767;-73
2023/10/27 03:18:13;;;;;;;1.30;1.20;;;;;;;13.97;100.00;95322.06;1224860;75;2922165;-72
2023/10/27 03:20:46;;;;;;;1.90;1.50;;;;;;;13.84;100.00;95312.75;1225535;75;2924684;-76
2023/10/27 03:23:19;;;;;;;2.50;1.80;;;;;;;13.74;100.00;95313.91;1225069;75;2927681;-75
2023/10/27 03:25:55;;;;;;;1.90;1.65;;;;;;;13.92;100.00;95323.72;1225703;75;2918099;-76
2023/10/27 03:28:28;;;;;;;1.55;1.20;;;;;;;14.07;100.00;95325.72;1225224;75;2918429;-75
2023/10/27 03:31:01;;;;;;;1.65;1.15;;;;;;;14.14;100.00;95326.97;1225499;75;2926667;-74
2023/10/27 03:33:33;;;;;;;1.00;0.90;;;;;;;14.14;100.00;95324.19;1225575;75;2915607;-72
2023/10/27 03:36:07;;;;;;;1.85;1.10;;;;;;;14.14;100.00;95319.47;1225461;75;2924529;-69
2023/10/27 03:38:40;;;;;;;0.95;0.75;;;;;;;14.30;100.00;95302.88;1224483;75;2924005;-73
2023/10/27 03:41:15;;;;;;;1.15;1.05;;;;;;;14.21;100.00;95295.94;1225017;75;2920239;-75
2023/10/27 03:43:48;;;;;;;1.00;0.90;;;;;;;14.24;100.00;95308.59;1224380;75;2920622;-73
2023/10/27 03:46:21;;;;;;;3.65;0.95;;;;;;;14.29;100.00;95302.13;1217565;75;3088236;-76
2023/10/27 03:48:54;;;;;;;1.00;0.80;;;;;;;14.36;100.00;95300.63;1205183;75;3438099;-76
2023/10/27 03:51:26;;;;;;;1.95;1.20;;;;;;;14.17;100.00;95301.81;1222930;75;2951692;-74
2023/10/27 03:53:59;;;;;;;1.45;1.15;;;;;;;14.12;100.00;95302.78;1221783;75;2911099;-76
2023/10/27 03:56:35;;;;;;;1.45;1.25;;;;;;;14.11;100.00;95290.28;1219394;75;2922759;-78
2023/10/27 03:59:10;;;;;;;1.20;1.10;;;;;;;14.10;100.00;95296.38;1220888;75;2909806;-74
2023/10/27 04:01:43;;;;;;;2.20;1.70;;;;;;;14.01;100.00;95286.66;1217248;75;3017424;-76
2023/10/27 04:04:16;;;;;;;1.90;1.20;;;;;;;14.16;100.00;95277.59;1217778;67;2940221;-74
2023/10/27 04:06:50;;;;;;;1.70;1.20;;;;;;;14.29;100.00;95269.13;1222871;75;2952876;-77
2023/10/27 04:09:23;;;;;;;0.85;0.80;;;;;;;14.33;100.00;95265.97;1222712;75;2930072;-77
2023/10/27 04:11:58;;;;;;;0.80;0.75;;;;;;;14.35;100.00;95252.38;1219904;75;2932348;-75
2023/10/27 04:14:31;;;;;;;1.75;1.20;;;;;;;13.96;100.00;95240.84;1219593;75;3060393;-75
2023/10/27 04:17:04;;;;;;;1.95;1.10;;;;;;;14.23;100.00;95230.06;1218905;75;3045420;-75
2023/10/27 04:19:37;;;;;;;1.70;1.05;;;;;;;14.12;100.00;95205.72;1212498;75;3369406;-77
2023/10/27 04:22:10;;;;;;;0.95;0.90;;;;;;;14.01;100.00;95196.63;1202566;75;4349068;-76
2023/10/27 04:24:43;;;;;;;2.05;1.20;;;;;;;14.17;100.00;95202.78;1221334;75;3056236;-76
2023/10/27 04:27:19;;;;;;;1.55;1.20;;;;;;;14.01;100.00;95198.66;1219346;75;2990066;-77
2023/10/27 04:29:52;;;;;;;1.65;1.20;;;;;;;14.11;100.00;95191.25;1219726;75;2960306;-72
2023/10/27 04:32:26;;;;;;;1.50;1.05;;;;;;;14.17;100.00;95175.25;1221566;75;2894189;-76
2023/10/27 04:34:58;;;;;;;1.20;0.95;;;;;;;14.13;100.00;95163.91;1220264;75;2945979;-71
2023/10/27 04:37:36;;;;;;;;;;;;;;;14.12;100.00;95156.19;1208472;75;3355253;-68
2023/10/27 04:40:11;;;;;;;1.30;1.10;;;;;;;14.11;100.00;95141.72;1157991;75;6540799;-75
2023/10/27 04:42:47;;;;;;;1.30;1.20;;;;;;;14.10;100.00;95154.03;1218389;75;2935158;-74
2023/10/27 04:45:20;;;;;;;2.40;1.10;;;;;;;14.10;100.00;95143.03;1220252;75;3020312;-76
2023/10/27 04:47:53;;;;;;;1.00;0.85;;;;;;;14.07;100.00;95130.41;1220281;75;2951765;-78
2023/10/27 04:50:27;;;;;;;1.05;0.90;;;;;;;14.02;100.00;95125.81;1210082;75;3250901;-72
2023/10/27 04:53:00;;;;;;;1.00;0.90;;;;;;;14.16;100.00;95137.28;1222150;75;2960470;-70
2023/10/27 04:55:33;;;;;;;0.75;0.75;;;;;;;14.13;100.00;95138.41;1223105;75;2918714;-76
2023/10/27 04:58:08;;;;;;;1.15;0.60;;;;;;;14.18;100.00;95135.44;1222685;75;2970936;-71
2023/10/27 05:00:42;;;;;;;1.00;0.90;;;;;;;14.29;100.00;95139.78;1212737;75;3126123;-70
2023/10/27 05:03:16;;;;;;;0.90;0.80;;;;;;;14.35;100.00;95129.25;1222423;75;2934321;-74
2023/10/27 05:05:50;;;;;;;0.50;0.50;;;;;;;14.39;100.00;95123.38;1158406;75;6086526;-74
2023/10/27 05:08:23;;;;;;;0.60;0.60;;;;;;;14.28;100.00;95117.00;1217605;75;3230236;-77
2023/10/27 05:10:58;;;;;;;0.90;0.50;;;;;;;14.20;100.00;95105.34;1159839;75;6287216;-71
2023/10/27 05:13:34;;;;;;;0.60;0.50;;;;;;;14.32;100.00;95108.38;1193690;75;3277511;-76
2023/10/27 05:16:10;;;;;;;0.95;0.60;;;;;;;14.24;100.00;95085.69;1138754;75;6144194;-76
2023/10/27 05:18:43;;;;;;;0.75;0.60;;;;;;;14.19;100.00;95089.38;1179286;75;6350804;-76
2023/10/27 05:21:21;;;;;;;1.65;0.90;;;;;;;14.21;100.00;95090.28;1220450;75;2955795;-76
2023/10/27 05:23:59;;;;;;;0.80;0.80;;;;;;;14.10;100.00;95066.00;1174341;75;4272189;-71
2023/10/27 05:26:50;;;;;;;0.60;0.60;;;;;;;14.13;100.00;95067.59;1175980;75;5837998;-72
2023/10/27 05:29:26;;;;;;;0.80;0.65;;;;;;;14.14;100.00;95062.84;1210021;75;3133490;-72
2023/10/27 05:31:58;;;;;;;1.00;0.75;;;;;;;14.01;100.00;95063.84;1225304;75;2922582;-70
2023/10/27 05:34:31;;;;;;;1.85;1.45;;;;;;;14.04;100.00;95066.19;1225969;75;2925676;-74
2023/10/27 05:37:04;;;;;;;1.40;1.15;;;;;;;14.01;100.00;95066.59;1223054;75;3066034;-73
2023/10/27 05:39:36;;;;;;;1.75;1.35;;;;;;;14.01;100.00;95070.09;1225302;75;2928010;-75
2023/10/27 05:42:09;;;;;;;1.75;1.20;;;;;;;14.28;100.00;95061.97;1225482;75;2913703;-77
2023/10/27 05:44:45;;;;;;;1.10;0.90;;;;;;;14.26;100.00;95061.81;1181015;75;6533922;-71
2023/10/27 05:47:19;;;;;;;1.30;1.00;;;;;;;14.38;100.00;95053.84;1225500;68;2919639;-74
2023/10/27 05:49:54;;;;;;;2.15;0.90;;;;;;;14.34;100.00;95034.22;1225214;75;2917541;-70
2023/10/27 05:52:27;;;;;;;0.80;0.80;;;;;;;14.29;100.00;95032.44;1226156;75;2916279;-72
2023/10/27 05:55:00;;;;;;;1.00;0.80;;;;;;;14.36;100.00;95044.66;1225463;75;2926142;-72
2023/10/27 05:57:32;;;;;;;0.60;0.60;;;;;;;14.35;100.00;95043.22;1225660;75;2912563;-69
2023/10/27 06:00:10;;;;;;;0.90;0.60;;;;;;;14.35;100.00;95035.69;1224785;75;2923200;-73
2023/10/27 06:02:43;;;;;;;1.10;0.80;;;;;;;14.19;100.00;95028.84;1225349;75;2921695;-71
2023/10/27 06:05:16;;;;;;;1.05;0.80;;;;;;;14.23;100.00;95037.44;1224924;75;2917723;-74
2023/10/27 06:07:48;;;;;;;0.60;0.40;;;;;;;14.21;100.00;95043.50;1225094;75;2923826;-72
2023/10/27 06:10:21;;;;;;;0.70;0.60;;;;;;;14.31;100.00;95042.88;1223186;75;2917989;-68
2023/10/27 06:12:54;;;;;;;0.70;0.70;;;;;;;14.19;100.00;95045.34;1225229;75;2920076;-69
2023/10/27 06:15:29;;;;;;;1.10;0.90;;;;;;;13.66;100.00;95033.47;1225206;75;2919532;-73
2023/10/27 06:18:02;;;;;;;1.75;1.40;;;;;;;13.94;100.00;95042.66;1225634;75;2913049;-74
2023/10/27 06:20:34;;;;;;;2.35;1.70;;;;;;;13.87;100.00;95046.19;1225955;75;2919503;-75
2023/10/27 06:23:07;;;;;;;4.70;3.65;;;;;;;14.20;100.00;95044.09;1225319;75;2912045;-71
2023/10/27 06:25:40;;;;;;;3.25;2.10;;;;;;;14.09;100.00;95050.75;1225064;75;2924809;-72
2023/10/27 06:28:12;;;;;;;2.80;2.10;;;;;;;14.13;100.00;95051.09;1225412;75;2923340;-74
2023/10/27 06:30:48;;;;;;;1.70;1.20;;;;;;;14.22;100.00;95036.00;1225407;75;2919030;-70
2023/10/27 06:33:20;;;;;;;2.05;1.50;;;;;;;14.36;100.00;95037.16;1224991;75;2928204;-73
2023/10/27 06:35:54;;;;;;;1.65;1.10;;;;;;;14.46;100.00;95034.47;1225719;75;2913993;-76
2023/10/27 06:38:27;;;;;;;1.10;0.95;;;;;;;14.44;100.00;95026.78;1224829;75;2922183;-72
2023/10/27 06:41:00;;;;;;;1.10;0.80;;;;;;;14.30;100.00;95020.13;1223842;75;2918177;-73
2023/10/27 06:43:32;;;;;;;1.35;0.80;;;;;;;14.25;100.00;95002.56;1224314;75;2921182;-73
2023/10/27 06:46:08;;;;;;;1.55;0.90;;;;;;;14.33;100.00;94999.00;1221434;75;3082278;-71
2023/10/27 06:48:41;;;;;;;2.15;0.80;;;;;;;14.38;100.00;95007.03;1224881;75;2915895;-73
2023/10/27 06:51:13;;;;;;;0.85;0.70;;;;;;;14.34;100.00;95012.22;1224069;75;2936470;-70
2023/10/27 06:53:46;;;;;;;1.30;0.95;;;;;;;14.12;100.00;95019.41;1225226;75;2919031;-69
2023/10/27 06:56:18;;;;;;;1.75;1.20;;;;;;;14.13;100.00;95025.63;1224971;75;2923837;-71
2023/10/27 06:58:51;;;;;;;1.95;0.60;;;;;;;14.03;100.00;95020.03;1225861;75;2920395;-69
2023/10/27 07:01:26;;;;;;;2.55;1.70;;;;;;;13.89;100.00;95022.31;1225754;75;2923315;-71
2023/10/27 07:03:59;;;;;;;1.30;1.10;;;;;;;13.91;100.00;95019.75;1225880;75;2923691;-72
2023/10/27 07:06:31;;;;;;;3.10;2.05;;;;;;;13.54;100.00;95019.47;1224613;75;2932643;-71
2023/10/27 07:09:10;;;;;;;3.33;2.10;;;;;;;13.50;100.00;95032.16;1200114;75;8993811;-69
2023/10/27 07:11:43;;;;;;;6.15;1.70;;;;;;;13.84;100.00;95059.03;1222248;75;3047783;-71
2023/10/27 07:14:16;;;;;;;2.90;1.15;;;;;;;13.79;100.00;95065.50;1224214;75;2914354;-72
2023/10/27 07:16:52;;;;;;;2.35;1.00;;;;;;;13.57;100.00;95075.34;1224939;75;2925420;-73
2023/10/27 07:19:25;;;;;;;1.70;1.00;;;;;;;13.42;100.00;95081.63;1224496;75;2919945;-73
2023/10/27 07:21:57;;;;;;;3.80;1.95;;;;;;;13.27;100.00;95085.19;1223781;75;2928386;-73
2023/10/27 07:24:33;;;;;;;5.55;3.05;;;;;;;13.37;100.00;95097.06;1224344;75;2924796;-70
2023/10/27 07:27:06;;;;;;;5.85;2.80;;;;;;;13.21;100.00;95112.84;1224322;75;2921494;-75
2023/10/27 07:29:39;;;;;;;7.85;4.05;;;;;;;12.94;100.00;95122.81;1224023;75;2923016;-70
2023/10/27 07:32:14;;;;;;;9.40;4.50;;;;;;;12.98;100.00;95118.41;1223599;75;2935205;-72
2023/10/27 07:34:47;;;;;;;6.00;3.40;;;;;;;13.31;100.00;95102.03;1223698;75;2950565;-71
2023/10/27 07:37:23;;;;;;;2.25;1.50;;;;;;;13.24;100.00;95096.56;1224741;75;2923648;-70
2023/10/27 07:39:55;;;;;;;1.90;1.15;;;;;;;13.22;100.00;95095.06;1224736;75;2927578;-72
2023/10/27 07:42:28;;;;;;;1.95;1.65;;;;;;;13.03;100.00;95067.31;1224130;75;2934741;-74
2023/10/27 07:45:01;;;;;;;11.45;6.50;;;;;;;12.95;100.00;95078.34;1224990;75;2928021;-70
2023/10/27 07:47:36;;;;;;;9.00;4.30;;;;;;;12.96;100.00;95082.56;1225841;75;2880455;-73
2023/10/27 07:50:09;;;;;;;4.10;2.20;;;;;;;13.24;100.00;95094.53;1224986;75;2918171;-71
2023/10/27 07:52:42;;;;;;;3.85;1.95;;;;;;;13.21;100.00;95125.88;1225384;75;2922586;-72
2023/10/27 07:55:15;;;;;;;2.55;1.80;;;;;;;13.39;100.00;95162.44;1225764;75;2922566;-71
2023/10/27 07:57:49;;;;;;;3.80;2.00;;;;;;;13.37;100.00;95173.25;1225314;75;2926449;-73
2023/10/27 08:00:22;;;;;;;1.80;1.30;;;;;;;13.44;100.00;95175.25;1225300;75;2926943;-71
2023/10/27 08:02:57;;;;;;;2.15;1.10;;;;;;;13.21;100.00;95156.81;1224960;75;2916651;-72
2023/10/27 08:05:31;;;;;;;2.15;0.95;;;;;;;13.24;100.00;95143.25;1225070;75;2920559;-69
2023/10/27 08:08:04;;;;;;;3.40;1.90;;;;;;;13.27;100.00;95128.41;1223113;75;2967547;-73
2023/10/27 08:10:40;;;;;;;4.35;2.45;;;;;;;13.44;100.00;95120.28;1224744;75;2917960;-75
2023/10/27 08:13:12;;;;;;;3.15;2.05;;;;;;;13.28;100.00;95111.41;1226197;75;2922300;-73
2023/10/27 08:15:45;;;;;;;3.30;1.60;;;;;;;13.15;100.00;95114.34;1225075;75;2920160;-73
2023/10/27 08:18:21;;;;;;;1.55;1.05;;;;;;;13.28;100.00;95127.16;1223274;75;2979197;-72
2023/10/27 08:20:55;;;;;;;2.75;1.40;;;;;;;13.40;100.00;95120.69;1224900;75;2904735;-71
2023/10/27 08:23:28;;;;;;;2.80;1.60;;;;;;;13.48;100.00;95104.16;1225026;75;2922689;-75
2023/10/27 08:26:00;;;;;;;1.45;1.20;;;;;;;13.55;100.00;95113.66;1225405;75;2922707;-70
2023/10/27 08:28:33;;;;;;;2.45;1.50;;;;;;;13.60;100.00;95116.19;1225869;75;2923498;-70
2023/10/27 08:31:07;;;;;;;2.00;0.85;;;;;;;13.74;100.00;95124.91;1222267;75;3066998;-70
2023/10/27 08:33:42;;;;;;;0.70;0.70;;;;;;;13.74;100.00;95133.16;1224992;75;2922297;-72
2023/10/27 08:36:15;;;;;;;1.45;0.80;;;;;;;13.80;100.00;95144.66;1225376;75;2923747;-74
2023/10/27 08:38:48;;;;;;;2.15;1.00;;;;;;;13.74;100.00;95185.41;1223717;75;2957544;-72
2023/10/27 08:41:21;;;;;;;3.20;1.60;;;;;;;13.71;100.00;95207.75;1224498;75;2922191;-76
2023/10/27 08:43:55;;;;;;;2.25;1.80;;;;;;;13.69;100.00;95230.34;1225340;75;2924601;-76
2023/10/27 08:46:29;;;;;;;2.20;1.50;;;;;;;13.80;100.00;95238.16;1224291;75;2917724;-74
2023/10/27 08:49:05;;;;;;;1.40;0.90;;;;;;;13.72;100.00;95264.97;1224540;75;2928223;-72
2023/10/27 08:51:38;;;;;;;1.90;0.80;;;;;;;13.78;100.00;95267.50;1224028;75;2919208;-76
2023/10/27 08:54:11;;;;;;;1.45;0.80;;;;;;;13.84;100.00;95281.78;1222628;67;2919843;-70
2023/10/27 08:56:44;;;;;;;1.25;0.80;;;;;;;13.82;100.00;95301.59;1225334;75;2919660;-73
2023/10/27 08:59:16;;;;;;;2.15;0.70;;;;;;;13.75;100.00;95296.84;1224489;75;2920032;-71
2023/10/27 09:01:49;;;;;;;3.05;1.10;;;;;;;13.58;100.00;95330.41;1224270;75;2925741;-71
2023/10/27 09:04:25;;;;;;;2.15;0.70;;;;;;;13.56;100.00;95360.47;1224338;75;2922285;-75
2023/10/27 09:06:58;;;;;;;2.20;1.00;;;;;;;13.43;100.00;95366.91;1224124;75;2924947;-70
2023/10/27 09:09:31;;;;;;;2.25;1.40;;;;;;;13.62;100.00;95363.78;1224900;75;2920538;-70
2023/10/27 09:12:03;;;;;;;3.55;1.50;;;;;;;13.74;100.00;95369.63;1225633;75;2918200;-69
2023/10/27 09:14:37;;;;;;;3.05;1.50;;;;;;;13.62;100.00;95355.53;1225289;75;2919916;-73
2023/10/27 09:17:13;;;;;;;3.55;1.60;;;;;;;13.68;100.00;95324.34;1223675;75;2922147;-71
2023/10/27 09:19:48;;;;;;;2.80;1.60;;;;;;;13.31;100.00;95297.13;1225183;75;2930678;-73
2023/10/27 09:22:21;;;;;;;1.75;0.80;;;;;;;13.53;100.00;95268.13;1224285;75;2925588;-68
2023/10/27 09:24:54;;;;;;;1.80;0.85;;;;;;;13.26;100.00;95245.81;1225572;75;2925950;-71
2023/10/27 09:27:29;;;;;;;0.90;0.70;;;;;;;13.16;100.00;95295.09;1224854;75;2915980;-73
2023/10/27 09:30:02;;;;;;;2.65;1.75;;;;;;;13.31;100.00;95343.09;1222971;75;2940445;-72
2023/10/27 09:32:35;;;;;;;1.50;0.95;;;;;;;13.36;100.00;95312.69;1224363;75;2926158;-71
2023/10/27 09:35:17;;;;;;;3.45;1.75;;;;;;;13.03;100.00;95280.81;1220625;75;3066752;-75
2023/10/27 09:37:52;;;;;;;3.30;1.90;;;;;;;13.35;100.00;95322.22;1223925;75;2933052;-75
2023/10/27 09:40:25;;;;;;;5.80;3.30;;;;;;;13.33;100.00;95341.28;1224982;75;2919176;-71
2023/10/27 09:43:02;;;;;;;4.30;2.70;;;;;;;13.58;100.00;95335.91;1224912;75;2921481;-72
2023/10/27 09:45:37;;;;;;;3.00;1.65;;;;;;;13.53;100.00;95331.34;1225036;75;2925603;-74
2023/10/27 09:48:12;;;;;;;1.35;1.00;;;;;;;13.80;100.00;95304.16;1224631;75;2923139;-70
2023/10/27 09:50:50;;;;;;;1.10;0.75;;;;;;;13.49;100.00;95316.50;1225494;75;2917898;-73
2023/10/27 09:53:23;;;;;;;1.20;0.80;;;;;;;13.14;100.00;95349.13;1225122;75;2918120;-73
2023/10/27 09:55:57;;;;;;;2.10;0.90;;;;;;;13.20;100.00;95338.66;1224582;75;2928601;-77
2023/10/27 09:58:33;;;;;;;1.25;0.75;;;;;;;13.13;100.00;95323.69;1224282;75;2918380;-70
2023/10/27 10:01:07;;;;;;;1.85;1.20;;;;;;;13.10;100.00;95319.25;1224224;75;2929257;-69
2023/10/27 10:03:44;;;;;;;3.65;1.95;;;;;;;13.07;100.00;95320.38;1223780;75;2920738;-73
2023/10/27 10:06:23;;;;;;;2.00;1.70;;;;;;;13.13;100.00;95331.91;1224579;75;2898633;-75
2023/10/27 10:09:14;;;;;;;2.95;1.35;;;;;;;13.27;100.00;95318.72;1224552;75;2935717;-73
2023/10/27 10:11:59;;;;;;;1.50;0.95;;;;;;;13.59;100.00;95311.94;1224464;75;2920682;-76
2023/10/27 10:14:53;;;;;;;0.90;0.75;;;;;;;13.77;100.00;95321.75;1224722;67;2919331;-73
2023/10/27 10:17:44;;;;;;;1.20;0.90;;;;;;;13.91;100.00;95322.28;1225074;67;2929082;-73
2023/10/27 10:20:16;;;;;;;0.90;0.70;;;;;;;14.06;100.00;95302.22;1224057;75;2921600;-73
2023/10/27 10:23:01;;;;;;;1.10;0.70;;;;;;;14.37;100.00;95302.09;1223881;75;2931356;-72
2023/10/27 10:25:35;;;;;;;2.80;1.10;;;;;;;13.97;100.00;95311.06;1224519;75;2922246;-74
2023/10/27 10:28:27;;;;;;;2.50;1.40;;;;;;;14.13;100.00;95326.22;1220811;75;3021877;-73
2023/10/27 10:31:27;;;;;;;3.30;1.60;;;;;;;14.25;100.00;95332.06;1224216;75;2924379;-74
2023/10/27 10:34:15;;;;;;;2.45;1.60;;;;;;;14.44;100.00;95332.31;1225049;75;2927306;-73
2023/10/27 10:36:48;;;;;;;2.70;1.60;;;;;;;14.33;100.00;95352.00;1224761;75;2922041;-74
2023/10/27 10:39:23;;;;;;;3.30;1.70;;;;;;;14.32;100.00;95350.56;1224440;75;2935413;-73
2023/10/27 10:42:08;;;;;;;2.25;1.40;;;;;;;14.61;100.00;95339.25;1224569;75;2924753;-76
2023/10/27 10:44:41;;;;;;;3.75;1.85;;;;;;;14.68;100.00;95316.44;1224645;75;2924250;-71
2023/10/27 10:47:26;;;;;;;4.70;1.50;;;;;;;14.56;100.00;95327.16;1225071;75;2927863;-75
2023/10/27 10:49:58;;;;;;;1.85;1.10;;;;;;;14.70;100.00;95327.63;1224112;75;2924366;-71
2023/10/27 10:52:31;;;;;;;1.80;0.95;;;;;;;14.86;100.00;95326.25;1224186;75;2925523;-73
2023/10/27 10:55:09;;;;;;;0.75;0.75;;;;;;;15.09;100.00;95314.31;1225260;75;2925441;-75
2023/10/27 10:57:41;;;;;;;1.10;0.70;;;;;;;15.25;100.00;95315.66;1224879;75;2922233;-72
2023/10/27 11:00:18;;;;;;;1.25;0.80;;;;;;;15.11;100.00;95326.22;1224728;75;2917704;-72
2023/10/27 11:02:51;;;;;;;3.05;1.30;;;;;;;15.21;100.00;95345.63;1221263;75;3080794;-72
2023/10/27 11:05:29;;;;;;;2.55;1.45;;;;;;;15.29;100.00;95349.03;1225318;75;2917639;-76
2023/10/27 11:08:02;;;;;;;;;;;;;;;15.01;100.00;95366.72;1225659;75;2927462;-78
2023/10/27 11:10:37;;;;;;;3.00;1.80;;;;;;;15.02;100.00;95379.19;1225078;75;2915765;-73
2023/10/27 11:13:10;;;;;;;3.30;1.55;;;;;;;15.33;100.00;95381.75;1225039;75;2921187;-70
2023/10/27 11:15:51;;;;;;;2.25;1.35;;;;;;;15.19;100.00;95388.81;1225433;75;2926194;-74
2023/10/27 11:18:24;;;;;;;1.85;1.10;;;;;;;15.47;100.00;95395.97;1224991;75;2923228;-74
2023/10/27 11:20:57;;;;;;;1.45;0.70;;;;;;;15.05;100.00;95402.13;1224466;75;2920537;-70
2023/10/27 11:23:31;;;;;;;0.85;0.65;;;;;;;15.15;100.00;95396.75;1224548;75;2922196;-75
2023/10/27 11:26:08;;;;;;;2.65;0.70;;;;;;;15.67;100.00;95399.66;1225400;75;2918654;-72
2023/10/27 11:28:43;;;;;;;0.60;0.50;;;;;;;15.30;100.00;95408.41;1210833;75;3955903;-72
2023/10/27 11:31:26;;;;;;;1.60;0.70;;;;;;;15.41;100.00;95415.47;1224888;75;2929786;-75
2023/10/27 11:34:01;;;;;;;0.95;0.60;;;;;;;15.18;100.00;95418.41;1223909;75;2926556;-73
2023/10/27 11:36:35;;;;;;;1.70;1.00;;;;;;;15.20;100.00;95423.34;1225236;75;2925760;-75
2023/10/27 11:39:19;;;;;;;1.45;0.80;;;;;;;15.25;100.00;95428.66;1224825;75;2926480;-75
2023/10/27 11:41:59;;;;;;;0.80;0.60;;;;;;;15.61;100.00;95421.22;1225340;75;2926140;-70